Time;durP1;ratioP1;P1;durP2;ratioP2;P2;SDS_P1;SDS_P2;PMS_P1;PMS_P2;Temp;Humidity;BMP_temperature;BMP_pressure;BME280_temperature;BME280_humidity;BME280_pressure;Samples;Min_cycle;Max_cycle;Signal;HPM_P1;HPM_P2
2021/05/02 00:02:10;;;;;;;37.00;31.97;;;7.60;99.90;;;;;;5097365;28;20485;-42
2021/05/02 00:04:37;;;;;;;35.40;31.07;;;7.40;99.90;;;;;;5098088;28;20827;-43
2021/05/02 00:07:03;;;;;;;36.43;31.93;;;7.20;99.90;;;;;;5098579;28;20210;-43
2021/05/02 00:09:31;;;;;;;41.07;32.97;;;7.10;99.90;;;;;;5097179;28;20422;-43
2021/05/02 00:11:59;;;;;;;40.13;33.27;;;7.10;99.90;;;;;;5098566;28;20180;-43
2021/05/02 00:14:25;;;;;;;40.00;31.60;;;6.90;99.90;;;;;;5098295;28;20485;-41
2021/05/02 00:16:52;;;;;;;40.13;32.33;;;6.80;99.90;;;;;;5098293;28;20489;-42
2021/05/02 00:19:19;;;;;;;39.30;32.70;;;6.80;99.90;;;;;;5096718;28;20832;-43
2021/05/02 00:21:46;;;;;;;39.80;32.87;;;6.70;99.90;;;;;;5097672;28;20927;-42
2021/05/02 00:24:13;;;;;;;40.67;32.77;;;6.70;99.90;;;;;;5097663;28;20754;-41
2021/05/02 00:26:39;;;;;;;39.10;33.00;;;6.60;99.90;;;;;;5097486;28;20430;-43
2021/05/02 00:29:05;;;;;;;42.13;35.10;;;6.50;99.90;;;;;;5098179;28;20720;-42
2021/05/02 00:31:31;;;;;;;42.73;33.17;;;6.50;99.90;;;;;;5097533;28;20459;-43
2021/05/02 00:33:56;;;;;;;44.83;35.73;;;6.50;99.90;;;;;;5096735;28;20455;-42
2021/05/02 00:36:22;;;;;;;39.73;34.20;;;6.40;99.90;;;;;;5097861;28;20256;-43
2021/05/02 00:38:48;;;;;;;38.23;31.00;;;6.50;99.90;;;;;;5097226;28;20590;-43
2021/05/02 00:41:22;;;;;;;44.80;35.13;;;6.50;99.90;;;;;;5097704;28;20437;-43
2021/05/02 00:44:05;;;;;;;43.77;34.07;;;6.40;99.90;;;;;;5098002;28;20175;-43
2021/05/02 00:46:58;;;;;;;39.60;34.80;;;6.40;99.90;;;;;;5100166;28;20437;-43
2021/05/02 00:49:29;;;;;;;39.57;34.97;;;6.40;99.90;;;;;;5092565;28;20445;-44
2021/05/02 00:51:59;;;;;;;46.43;34.87;;;6.40;99.90;;;;;;5100446;28;20471;-41
2021/05/02 00:54:33;;;;;;;45.23;35.50;;;6.40;99.90;;;;;;5101324;28;20418;-42
2021/05/02 00:57:00;;;;;;;43.83;36.27;;;6.40;99.90;;;;;;5101538;28;20491;-43
2021/05/02 00:59:50;;;;;;;41.53;34.00;;;6.40;99.90;;;;;;5102048;28;20415;-43
2021/05/02 01:02:17;;;;;;;46.90;34.67;;;6.20;99.90;;;;;;5100283;28;20464;-43
2021/05/02 01:04:44;;;;;;;42.87;33.40;;;6.30;99.90;;;;;;5101367;28;20471;-43
2021/05/02 01:07:16;;;;;;;45.70;34.80;;;6.30;99.90;;;;;;5101192;28;20438;-43
2021/05/02 01:09:42;;;;;;;40.60;35.47;;;6.20;99.90;;;;;;5100164;28;20448;-43
2021/05/02 01:12:14;;;;;;;42.90;34.97;;;6.20;99.90;;;;;;5101231;28;20503;-42
2021/05/02 01:15:02;;;;;;;44.43;34.30;;;6.10;99.90;;;;;;5100155;28;20473;-43
2021/05/02 01:17:30;;;;;;;43.33;35.30;;;6.10;99.90;;;;;;5100650;28;20481;-41
2021/05/02 01:19:56;;;;;;;41.97;33.73;;;6.10;99.90;;;;;;5100337;28;20414;-41
2021/05/02 01:22:22;;;;;;;40.20;34.10;;;6.10;99.90;;;;;;5100628;28;20433;-43
2021/05/02 01:24:52;;;;;;;38.67;31.93;;;6.10;99.90;;;;;;5101005;28;20479;-40
2021/05/02 01:27:39;;;;;;;40.40;34.53;;;6.10;99.90;;;;;;5101000;28;20462;-42
2021/05/02 01:33:11;;;;;;;35.53;31.47;;;6.10;99.90;;;;;;5100541;28;20488;-40
2021/05/02 01:35:37;;;;;;;36.23;32.23;;;6.10;99.90;;;;;;5100710;28;20410;-43
2021/05/02 01:38:03;;;;;;;35.07;31.30;;;6.10;99.90;;;;;;5100166;28;20585;-42
2021/05/02 01:40:29;;;;;;;38.30;31.10;;;6.10;99.90;;;;;;5100596;28;20733;-43
2021/05/02 01:42:55;;;;;;;32.90;29.27;;;6.10;99.90;;;;;;5100547;28;20501;-43
2021/05/02 01:45:20;;;;;;;33.17;29.67;;;6.20;99.90;;;;;;5100882;28;20172;-42
2021/05/02 01:47:48;;;;;;;32.67;28.43;;;6.10;99.90;;;;;;5100297;28;20434;-43
2021/05/02 01:50:14;;;;;;;30.63;26.47;;;6.00;99.90;;;;;;5099353;28;20196;-42
2021/05/02 01:52:47;;;;;;;30.50;27.20;;;6.00;99.90;;;;;;5100121;28;20438;-43
2021/05/02 01:55:14;;;;;;;31.80;28.30;;;6.00;99.90;;;;;;5099691;28;20207;-43
2021/05/02 01:57:40;;;;;;;29.93;26.90;;;6.00;99.90;;;;;;5099268;28;20564;-42
2021/05/02 02:00:21;;;;;;;35.10;29.20;;;6.00;99.90;;;;;;5099262;28;20406;-43
2021/05/02 02:02:48;;;;;;;33.43;29.83;;;5.90;99.90;;;;;;5099413;28;20445;-43
2021/05/02 02:05:15;;;;;;;33.80;28.60;;;5.90;99.90;;;;;;5099250;28;20465;-43
2021/05/02 02:07:42;;;;;;;32.10;28.70;;;5.80;99.90;;;;;;5099361;28;20450;-42
2021/05/02 02:10:10;;;;;;;32.00;28.00;;;5.80;99.90;;;;;;5099955;28;20418;-42
2021/05/02 02:12:36;;;;;;;30.87;27.43;;;5.90;99.90;;;;;;5098818;28;20446;-43
2021/05/02 02:15:03;;;;;;;33.17;29.37;;;5.90;99.90;;;;;;5099753;28;20557;-43
2021/05/02 02:17:29;;;;;;;32.67;28.60;;;5.80;99.90;;;;;;5100006;28;20570;-41
2021/05/02 02:19:56;;;;;;;34.33;30.60;;;5.80;99.90;;;;;;5099757;28;20792;-43
2021/05/02 02:22:22;;;;;;;35.13;30.07;;;5.80;99.90;;;;;;5099803;28;20586;-43
2021/05/02 02:24:51;;;;;;;30.87;27.67;;;5.80;99.90;;;;;;5098677;28;20480;-43
2021/05/02 02:27:19;;;;;;;35.17;31.40;;;5.80;99.90;;;;;;5099697;28;20445;-43
2021/05/02 02:29:49;;;;;;;34.47;30.07;;;5.80;99.90;;;;;;5098673;28;20418;-42
2021/05/02 02:32:18;;;;;;;34.13;30.43;;;5.80;99.90;;;;;;5099560;28;20456;-43
2021/05/02 02:34:48;;;;;;;34.07;30.53;;;5.80;99.90;;;;;;5099257;28;20499;-43
2021/05/02 02:37:19;;;;;;;32.80;27.87;;;5.80;99.90;;;;;;5099586;28;20872;-42
2021/05/02 02:39:49;;;;;;;33.40;30.10;;;5.80;99.90;;;;;;5099633;28;20684;-43
2021/05/02 02:42:16;;;;;;;34.43;30.70;;;5.80;99.90;;;;;;5099460;28;20732;-42
2021/05/02 02:44:49;;;;;;;32.23;28.37;;;5.80;99.90;;;;;;5099286;28;20824;-42
2021/05/02 02:47:19;;;;;;;35.57;31.80;;;5.80;99.90;;;;;;5099335;28;20430;-41
2021/05/02 02:49:53;;;;;;;34.03;30.57;;;5.80;99.90;;;;;;5098600;28;20411;-42
2021/05/02 02:52:21;;;;;;;35.60;31.90;;;5.80;99.90;;;;;;5098710;28;20692;-42
2021/05/02 02:54:49;;;;;;;34.10;30.43;;;5.80;99.90;;;;;;5099330;28;20467;-42
2021/05/02 02:57:21;;;;;;;36.43;32.53;;;5.70;99.90;;;;;;5098517;28;20779;-43
2021/05/02 02:59:48;;;;;;;35.03;31.33;;;5.70;99.90;;;;;;5098457;28;20415;-41
2021/05/02 03:02:15;;;;;;;38.00;33.27;;;5.70;99.90;;;;;;5099221;28;20492;-43
2021/05/02 03:04:41;;;;;;;36.47;31.83;;;5.80;99.90;;;;;;5097839;28;20483;-43
2021/05/02 03:07:09;;;;;;;35.43;31.70;;;5.80;99.90;;;;;;5098130;28;20828;-42
2021/05/02 03:09:37;;;;;;;39.47;33.27;;;5.80;99.90;;;;;;5096628;28;20694;-43
2021/05/02 03:12:05;;;;;;;37.50;33.40;;;5.70;99.90;;;;;;5080646;28;20462;-43
2021/05/02 03:14:31;;;;;;;37.07;33.10;;;5.70;99.90;;;;;;5097691;28;20771;-42
2021/05/02 03:16:57;;;;;;;39.10;31.80;;;5.60;99.90;;;;;;5097628;28;20445;-42
2021/05/02 03:19:27;;;;;;;39.63;35.43;;;5.70;99.90;;;;;;5097434;28;20549;-42
2021/05/02 03:21:56;;;;;;;38.70;34.53;;;5.70;99.90;;;;;;5098715;28;20446;-41
2021/05/02 03:24:42;;;;;;;40.10;35.90;;;5.60;99.90;;;;;;5098311;28;20425;-41
2021/05/02 03:27:27;;;;;;;37.23;33.17;;;5.60;99.90;;;;;;5098361;28;20434;-43
2021/05/02 03:29:56;;;;;;;39.50;33.50;;;5.60;99.90;;;;;;5097448;28;20493;-42
2021/05/02 03:32:24;;;;;;;39.80;35.33;;;5.70;99.90;;;;;;5098557;28;20430;-42
2021/05/02 03:34:51;;;;;;;37.67;33.40;;;5.70;99.90;;;;;;5098371;28;20414;-43
2021/05/02 03:37:19;;;;;;;40.80;35.20;;;5.70;99.90;;;;;;5097598;28;20470;-43
2021/05/02 03:39:49;;;;;;;38.73;34.50;;;5.80;99.90;;;;;;5097138;28;20813;-43
2021/05/02 03:42:16;;;;;;;37.20;33.20;;;5.80;99.90;;;;;;5080753;28;20548;-43
2021/05/02 03:44:42;;;;;;;39.80;35.60;;;5.80;99.90;;;;;;5097707;28;20812;-43
2021/05/02 03:47:08;;;;;;;40.80;35.50;;;5.80;99.90;;;;;;5098601;28;20441;-42
2021/05/02 03:49:35;;;;;;;38.37;34.30;;;5.90;99.90;;;;;;5098228;28;20410;-43
2021/05/02 03:52:01;;;;;;;38.87;34.70;;;5.90;99.90;;;;;;5098110;28;20431;-43
2021/05/02 03:54:27;;;;;;;39.30;35.03;;;5.90;99.90;;;;;;5099061;28;20426;-42
2021/05/02 03:56:53;;;;;;;37.40;33.20;;;6.00;99.90;;;;;;5098243;28;20685;-43
2021/05/02 03:59:23;;;;;;;38.67;34.77;;;6.00;99.90;;;;;;5097905;28;20732;-43
2021/05/02 04:01:55;;;;;;;36.47;32.43;;;5.90;99.90;;;;;;5098490;28;20191;-44
2021/05/02 04:04:30;;;;;;;38.97;34.90;;;5.90;99.90;;;;;;5097497;28;20467;-43
2021/05/02 04:07:04;;;;;;;35.73;32.03;;;5.80;99.90;;;;;;5098217;28;20494;-43
2021/05/02 04:09:30;;;;;;;39.17;35.00;;;5.90;99.90;;;;;;5097401;28;20411;-44
2021/05/02 04:11:56;;;;;;;40.30;36.00;;;5.90;99.90;;;;;;5096923;28;20442;-41
2021/05/02 04:14:23;;;;;;;38.73;34.60;;;5.80;99.90;;;;;;5097689;28;20919;-42
2021/05/02 04:17:00;;;;;;;38.80;34.63;;;5.90;99.90;;;;;;5096637;28;20476;-42
2021/05/02 04:19:26;;;;;;;38.07;33.97;;;5.90;99.90;;;;;;5099169;28;20426;-41
2021/05/02 04:21:52;;;;;;;39.10;33.80;;;5.80;99.90;;;;;;5103776;28;20434;-41
2021/05/02 04:24:18;;;;;;;37.87;33.87;;;5.90;99.90;;;;;;5104946;28;20417;-41
2021/05/02 04:26:48;;;;;;;37.37;33.37;;;5.90;99.90;;;;;;5104554;28;20563;-42
2021/05/02 04:29:14;;;;;;;36.80;32.87;;;5.90;99.90;;;;;;5104406;28;20426;-41
2021/05/02 04:31:40;;;;;;;38.93;34.87;;;5.90;99.90;;;;;;5104699;28;20437;-41
2021/05/02 04:34:05;;;;;;;39.13;35.00;;;5.80;99.90;;;;;;5103754;28;20425;-42
2021/05/02 04:36:32;;;;;;;36.27;32.50;;;5.80;99.90;;;;;;5104147;28;20180;-41
2021/05/02 04:38:58;;;;;;;33.73;30.10;;;5.80;99.90;;;;;;5104239;28;20306;-42
2021/05/02 04:41:24;;;;;;;36.23;32.50;;;5.80;99.90;;;;;;5104454;28;20440;-42
2021/05/02 04:43:50;;;;;;;37.87;33.87;;;5.70;99.90;;;;;;5104092;28;20753;-42
2021/05/02 04:46:17;;;;;;;37.00;33.20;;;5.80;99.90;;;;;;5104218;28;20485;-42
2021/05/02 04:48:43;;;;;;;39.10;34.70;;;5.80;99.90;;;;;;5104250;28;20237;-42
2021/05/02 04:51:10;;;;;;;39.83;35.50;;;5.80;99.90;;;;;;5104422;28;20418;-40
2021/05/02 04:53:35;;;;;;;36.40;32.50;;;5.80;99.90;;;;;;5104195;28;20418;-43
2021/05/02 04:56:01;;;;;;;37.17;33.37;;;5.80;99.90;;;;;;5104435;28;20424;-43
2021/05/02 04:58:27;;;;;;;35.77;32.07;;;5.90;99.90;;;;;;5104205;28;20500;-42
2021/05/02 05:00:53;;;;;;;37.53;33.53;;;5.90;99.90;;;;;;5104053;28;20203;-42
2021/05/02 05:03:19;;;;;;;35.83;32.00;;;5.90;99.90;;;;;;5104301;28;20566;-43
2021/05/02 05:05:44;;;;;;;36.40;32.80;;;6.00;99.90;;;;;;5104839;28;20446;-43
2021/05/02 05:08:10;;;;;;;33.80;30.37;;;6.10;99.90;;;;;;5104056;28;20456;-42
2021/05/02 05:10:36;;;;;;;34.10;30.63;;;6.10;99.90;;;;;;5104270;28;20183;-41
2021/05/02 05:13:03;;;;;;;35.30;31.70;;;6.10;99.90;;;;;;5104552;28;20192;-42
2021/05/02 05:15:28;;;;;;;33.90;30.40;;;6.10;99.90;;;;;;5103435;28;20740;-40
2021/05/02 05:17:54;;;;;;;36.20;32.63;;;6.00;99.90;;;;;;5104123;28;20470;-42
2021/05/02 05:20:20;;;;;;;35.00;31.40;;;6.00;99.90;;;;;;5104310;28;20187;-42
2021/05/02 05:22:46;;;;;;;33.40;29.97;;;6.00;99.90;;;;;;5104237;28;20434;-43
2021/05/02 05:25:12;;;;;;;33.47;30.00;;;6.00;99.90;;;;;;5104725;28;20497;-39
2021/05/02 05:27:38;;;;;;;35.03;31.50;;;6.00;99.90;;;;;;5103841;28;20184;-43
2021/05/02 05:30:05;;;;;;;34.37;30.87;;;6.00;99.90;;;;;;5103611;28;20435;-41
2021/05/02 05:32:31;;;;;;;34.70;31.10;;;6.10;99.90;;;;;;5100651;28;20192;-43
2021/05/02 05:34:57;;;;;;;35.63;30.97;;;6.10;99.90;;;;;;5100851;28;20886;-43
2021/05/02 05:37:22;;;;;;;33.90;30.17;;;6.10;99.90;;;;;;5099308;28;20497;-42
2021/05/02 05:39:49;;;;;;;35.47;31.87;;;6.10;99.90;;;;;;5100559;28;20169;-43
2021/05/02 05:42:15;;;;;;;33.97;30.67;;;6.10;99.90;;;;;;5100599;28;20253;-43
2021/05/02 05:44:41;;;;;;;35.50;31.80;;;6.20;99.90;;;;;;5101015;28;20414;-42
2021/05/02 05:47:08;;;;;;;32.50;29.00;;;6.30;99.90;;;;;;5100490;28;20507;-42
2021/05/02 05:49:36;;;;;;;34.90;31.50;;;6.20;99.90;;;;;;5100213;28;20415;-40
2021/05/02 05:52:02;;;;;;;33.23;29.87;;;6.40;99.90;;;;;;5100647;28;20434;-42
2021/05/02 05:54:28;;;;;;;33.13;29.83;;;6.70;99.90;;;;;;5100602;28;20834;-41
2021/05/02 05:56:54;;;;;;;30.67;27.60;;;6.80;99.90;;;;;;5099338;28;20577;-43
2021/05/02 05:59:20;;;;;;;33.07;29.67;;;6.90;99.90;;;;;;5099895;28;20214;-41
2021/05/02 06:01:45;;;;;;;30.77;27.70;;;7.10;99.90;;;;;;5100169;28;20430;-42
2021/05/02 06:04:11;;;;;;;31.03;28.00;;;7.20;99.90;;;;;;5101294;28;20172;-42
2021/05/02 06:06:38;;;;;;;33.60;30.20;;;7.20;99.90;;;;;;5100590;28;20191;-39
2021/05/02 06:09:08;;;;;;;29.73;26.60;;;7.40;99.90;;;;;;5100581;28;20180;-41
2021/05/02 06:11:35;;;;;;;31.43;28.20;;;7.40;99.70;;;;;;5101456;28;20434;-41
2021/05/02 06:14:01;;;;;;;29.90;26.90;;;7.40;99.70;;;;;;5100834;28;20469;-42
2021/05/02 06:16:27;;;;;;;30.93;27.83;;;7.50;99.90;;;;;;5101078;28;20758;-41
2021/05/02 06:18:54;;;;;;;31.10;27.73;;;7.50;99.30;;;;;;5099143;28;20513;-39
2021/05/02 06:21:20;;;;;;;30.20;27.13;;;7.50;99.30;;;;;;5100444;28;20175;-41
2021/05/02 06:23:47;;;;;;;30.47;27.20;;;7.50;99.70;;;;;;5100676;28;20702;-42
2021/05/02 06:26:14;;;;;;;28.63;25.63;;;7.60;99.90;;;;;;5099889;28;20816;-42
2021/05/02 06:28:41;;;;;;;29.47;26.37;;;7.70;99.80;;;;;;5099723;28;20696;-42
2021/05/02 06:31:08;;;;;;;28.70;25.40;;;7.80;99.90;;;;;;5100561;28;20410;-42
2021/05/02 06:33:35;;;;;;;30.87;27.90;;;7.90;99.10;;;;;;5100342;28;20426;-42
2021/05/02 06:36:03;;;;;;;28.27;25.13;;;8.00;98.40;;;;;;5099806;28;20419;-41
2021/05/02 06:38:29;;;;;;;29.37;26.40;;;8.00;98.00;;;;;;5099170;28;20466;-42
2021/05/02 06:40:55;;;;;;;27.40;24.50;;;8.10;98.20;;;;;;5099124;28;20414;-41
2021/05/02 06:43:21;;;;;;;27.57;24.87;;;8.20;99.00;;;;;;5099178;28;20437;-40
2021/05/02 06:45:47;;;;;;;27.17;24.57;;;8.30;98.20;;;;;;5082458;28;20177;-42
2021/05/02 06:48:12;;;;;;;25.57;23.13;;;8.50;97.40;;;;;;5099839;28;20562;-42
2021/05/02 06:50:38;;;;;;;26.43;23.83;;;8.40;97.50;;;;;;5099859;28;20862;-41
2021/05/02 06:53:04;;;;;;;26.80;24.10;;;8.70;96.60;;;;;;5100016;28;20442;-42
2021/05/02 06:55:30;;;;;;;26.50;24.03;;;8.00;97.80;;;;;;5098834;28;20279;-41
2021/05/02 06:57:59;;;;;;;28.00;25.17;;;8.00;98.50;;;;;;5098537;28;20295;-40
2021/05/02 07:00:25;;;;;;;27.43;24.50;;;8.20;98.10;;;;;;5098603;28;20427;-42
2021/05/02 07:02:51;;;;;;;28.20;25.60;;;8.20;97.10;;;;;;5099950;28;20520;-40
2021/05/02 07:05:17;;;;;;;26.03;23.53;;;8.40;97.50;;;;;;5098829;28;20808;-41
2021/05/02 07:07:42;;;;;;;27.23;24.43;;;8.80;98.00;;;;;;5099197;28;20537;-40
2021/05/02 07:10:09;;;;;;;26.90;24.33;;;8.70;97.20;;;;;;5099407;28;20562;-41
2021/05/02 07:12:34;;;;;;;27.10;24.30;;;8.40;97.30;;;;;;5081421;28;20593;-42
2021/05/02 07:15:00;;;;;;;28.77;25.83;;;8.40;98.20;;;;;;5099109;28;20458;-41
2021/05/02 07:17:26;;;;;;;26.50;24.00;;;8.30;98.00;;;;;;5099772;28;20223;-42
2021/05/02 07:19:52;;;;;;;26.60;24.10;;;8.40;98.80;;;;;;5098088;28;20590;-43
2021/05/02 07:22:19;;;;;;;28.40;25.50;;;8.80;99.20;;;;;;5098940;28;20434;-42
2021/05/02 07:24:48;;;;;;;30.40;25.00;;;9.00;98.30;;;;;;5099396;28;20495;-43
2021/05/02 07:27:16;;;;;;;27.23;24.63;;;9.30;97.70;;;;;;5097781;28;20422;-42
2021/05/02 07:29:41;;;;;;;25.90;23.50;;;9.70;96.60;;;;;;5098212;28;20437;-42
2021/05/02 07:32:07;;;;;;;23.33;21.10;;;10.30;95.00;;;;;;5098981;28;20670;-42
2021/05/02 07:34:34;;;;;;;23.93;21.67;;;10.60;94.20;;;;;;5097888;28;20499;-43
2021/05/02 07:36:59;;;;;;;22.63;20.40;;;11.20;92.80;;;;;;5098521;28;20426;-43
2021/05/02 07:39:25;;;;;;;19.77;18.10;;;11.10;91.20;;;;;;5099021;28;20485;-40
2021/05/02 07:41:52;;;;;;;21.67;19.67;;;11.40;90.80;;;;;;5098150;28;20172;-38
2021/05/02 07:44:18;;;;;;;21.17;18.23;;;10.80;88.00;;;;;;5097798;28;20430;-40
2021/05/02 07:46:43;;;;;;;23.00;20.80;;;10.80;90.60;;;;;;5097935;28;20754;-41
2021/05/02 07:49:09;;;;;;;22.60;20.30;;;10.60;90.80;;;;;;5098063;28;20198;-42
2021/05/02 07:51:35;;;;;;;21.67;19.67;;;10.80;90.40;;;;;;5096684;28;20423;-43
2021/05/02 07:54:01;;;;;;;20.93;19.13;;;10.50;87.70;;;;;;5097704;28;20283;-42
2021/05/02 07:56:27;;;;;;;23.03;20.83;;;10.30;88.60;;;;;;5097726;28;20508;-43
2021/05/02 07:58:53;;;;;;;21.00;18.80;;;10.60;87.80;;;;;;5098021;28;20223;-43
2021/05/02 08:01:18;;;;;;;21.87;19.87;;;11.00;88.40;;;;;;5098489;28;20422;-43
2021/05/02 08:03:44;;;;;;;21.83;19.83;;;11.40;87.40;;;;;;5096905;28;20471;-42
2021/05/02 08:06:10;;;;;;;20.90;19.00;;;11.30;85.60;;;;;;5098607;28;20179;-42
2021/05/02 08:08:35;;;;;;;21.40;19.40;;;10.80;83.70;;;;;;5096367;28;20634;-43
2021/05/02 08:11:01;;;;;;;20.57;18.53;;;11.00;85.00;;;;;;5097562;28;20219;-43
2021/05/02 08:13:27;;;;;;;21.37;19.27;;;11.30;84.10;;;;;;5098333;28;20558;-41
2021/05/02 08:15:53;;;;;;;20.23;18.37;;;11.20;83.90;;;;;;5098395;28;20231;-42
2021/05/02 08:18:18;;;;;;;21.50;19.50;;;11.50;83.10;;;;;;5097751;28;20958;-43
2021/05/02 08:20:45;;;;;;;19.93;18.07;;;11.00;79.80;;;;;;5098039;28;20173;-39
2021/05/02 08:23:10;;;;;;;19.70;17.90;;;11.10;81.60;;;;;;5097835;28;20161;-41
2021/05/02 08:25:37;;;;;;;18.90;17.20;;;11.40;82.40;;;;;;5097587;28;20472;-42
2021/05/02 08:28:03;;;;;;;18.60;17.03;;;11.60;81.60;;;;;;5098221;28;20542;-43
2021/05/02 08:30:29;;;;;;;21.30;19.20;;;11.90;82.10;;;;;;5098243;28;20503;-42
2021/05/02 08:32:55;;;;;;;21.57;18.80;;;12.00;81.60;;;;;;5097969;28;20476;-42
2021/05/02 08:35:21;;;;;;;21.77;19.33;;;11.50;80.50;;;;;;5097939;28;20529;-43
2021/05/02 08:37:46;;;;;;;21.43;19.50;;;11.30;80.00;;;;;;5098117;28;20454;-42
2021/05/02 08:40:13;;;;;;;20.33;18.47;;;10.30;81.20;;;;;;5097621;28;20195;-42
2021/05/02 08:42:39;;;;;;;21.97;19.87;;;10.00;83.80;;;;;;5098206;28;20263;-43
2021/05/02 08:45:06;;;;;;;21.67;19.77;;;10.10;85.60;;;;;;5098565;28;20729;-43
2021/05/02 08:47:36;;;;;;;20.23;18.27;;;10.10;85.70;;;;;;5098403;28;20828;-42
2021/05/02 08:50:07;;;;;;;21.13;19.10;;;10.60;86.50;;;;;;5097216;28;20453;-41
2021/05/02 08:52:34;;;;;;;19.87;17.97;;;10.80;84.20;;;;;;5097085;28;20422;-41
2021/05/02 08:55:00;;;;;;;19.63;17.30;;;11.10;84.10;;;;;;5098053;28;20434;-42
2021/05/02 08:57:25;;;;;;;19.77;17.90;;;11.60;84.00;;;;;;5097880;28;20559;-40
2021/05/02 08:59:51;;;;;;;19.90;18.03;;;11.60;82.00;;;;;;5096356;28;20434;-43
2021/05/02 09:02:24;;;;;;;20.30;18.23;;;12.00;81.80;;;;;;5097365;28;20177;-43
2021/05/02 09:05:03;;;;;;;19.50;17.73;;;11.80;79.70;;;;;;5097254;28;20445;-41
2021/05/02 09:07:47;;;;;;;22.40;19.97;;;12.50;80.40;;;;;;5099414;28;20808;-42
2021/05/02 09:10:15;;;;;;;19.53;17.83;;;12.70;74.70;;;;;;5084234;28;20438;-43
2021/05/02 09:12:43;;;;;;;18.30;16.67;;;13.60;75.70;;;;;;5102185;28;20444;-43
2021/05/02 09:15:16;;;;;;;20.37;18.47;;;13.50;75.50;;;;;;5099957;28;20466;-42
2021/05/02 09:17:50;;;;;;;19.67;17.87;;;14.00;70.60;;;;;;5100550;28;20465;-43
2021/05/02 09:20:48;;;;;;;21.93;19.90;;;14.10;69.80;;;;;;5101502;28;20779;-43
2021/05/02 09:23:15;;;;;;;18.77;16.87;;;13.60;66.80;;;;;;5101078;28;20407;-41
2021/05/02 09:25:47;;;;;;;21.00;19.30;;;14.50;69.90;;;;;;5101124;28;20840;-43
2021/05/02 09:28:13;;;;;;;20.30;18.57;;;13.70;64.20;;;;;;5101423;28;20455;-43
2021/05/02 09:30:39;;;;;;;23.17;20.97;;;13.70;67.20;;;;;;5101148;28;20414;-43
2021/05/02 09:33:04;;;;;;;23.87;21.83;;;12.50;66.50;;;;;;5101047;28;20186;-43
2021/05/02 09:35:34;;;;;;;26.97;24.10;;;11.90;69.20;;;;;;5100344;28;20242;-42
2021/05/02 09:38:16;;;;;;;25.33;23.07;;;11.60;69.10;;;;;;5098759;28;20200;-42
2021/05/02 09:40:47;;;;;;;24.07;21.67;;;11.50;69.40;;;;;;5101652;28;20410;-43
2021/05/02 09:43:39;;;;;;;23.47;21.33;;;11.70;70.50;;;;;;5101032;28;20415;-44
2021/05/02 09:46:34;;;;;;;22.87;20.77;;;11.70;69.90;;;;;;5100409;28;20407;-43
2021/05/02 09:49:09;;;;;;;20.20;18.40;;;12.10;74.30;;;;;;5100149;28;20711;-43
2021/05/02 09:51:37;;;;;;;21.40;19.60;;;11.90;71.50;;;;;;5099767;28;20418;-42
2021/05/02 09:54:05;;;;;;;24.87;22.47;;;12.30;73.40;;;;;;5100315;28;20477;-44
2021/05/02 09:56:48;;;;;;;25.70;23.20;;;11.80;72.70;;;;;;5099715;28;20427;-43
2021/05/02 09:59:32;;;;;;;25.73;22.47;;;10.80;72.40;;;;;;5081491;28;20509;-43
2021/05/02 10:02:13;;;;;;;22.87;20.83;;;10.40;75.00;;;;;;5099131;28;20841;-43
2021/05/02 10:04:43;;;;;;;23.40;20.97;;;10.80;76.70;;;;;;5100065;28;20446;-42
2021/05/02 10:07:13;;;;;;;18.80;17.00;;;12.10;72.90;;;;;;5097676;28;20442;-44
2021/05/02 10:09:39;;;;;;;22.73;20.43;;;13.80;72.80;;;;;;5099453;28;20465;-42
2021/05/02 10:12:06;;;;;;;21.80;19.87;;;15.50;65.80;;;;;;5099261;28;20422;-44
2021/05/02 10:14:33;;;;;;;22.13;20.10;;;15.70;59.80;;;;;;5099980;28;20465;-44
2021/05/02 10:17:00;;;;;;;20.53;18.67;;;15.10;57.30;;;;;;5099497;28;20476;-44
2021/05/02 10:19:28;;;;;;;21.00;19.17;;;15.30;58.50;;;;;;5099164;28;20473;-43
2021/05/02 10:21:54;;;;;;;22.63;20.63;;;14.20;57.10;;;;;;5081911;28;20427;-42
2021/05/02 10:24:20;;;;;;;23.20;21.10;;;14.00;58.30;;;;;;5100201;28;20434;-42
2021/05/02 10:26:46;;;;;;;22.63;20.63;;;13.50;58.10;;;;;;5081800;28;20442;-42
2021/05/02 10:29:12;;;;;;;17.40;15.90;;;13.80;59.20;;;;;;5099372;28;20254;-42
2021/05/02 10:31:41;;;;;;;18.90;17.30;;;14.70;59.30;;;;;;5099062;28;20534;-43
2021/05/02 10:34:40;;;;;;;22.33;20.20;;;15.50;57.50;;;;;;5097609;28;20440;-42
2021/05/02 10:37:24;;;;;;;22.83;20.73;;;15.40;55.00;;;;;;5084197;28;20435;-44
2021/05/02 10:40:10;;;;;;;21.77;20.00;;;14.60;54.60;;;;;;5098216;28;20466;-43
2021/05/02 10:42:47;;;;;;;21.33;19.33;;;14.50;55.70;;;;;;5099037;28;20407;-44
2021/05/02 10:45:28;;;;;;;22.53;20.60;;;14.80;56.70;;;;;;5098878;28;20428;-44
2021/05/02 10:47:54;;;;;;;17.20;15.70;;;14.90;55.80;;;;;;5098940;28;20415;-44
2021/05/02 10:50:33;;;;;;;18.97;17.40;;;15.60;56.30;;;;;;5099437;28;20832;-42
2021/05/02 10:53:16;;;;;;;21.10;19.13;;;17.20;55.00;;;;;;5099137;28;20411;-44
2021/05/02 10:55:52;;;;;;;19.80;18.20;;;17.30;49.90;;;;;;5098989;28;20904;-44
2021/05/02 10:58:24;;;;;;;20.60;18.70;;;16.40;50.70;;;;;;5099309;28;20487;-44
2021/05/02 11:00:55;;;;;;;21.60;19.90;;;16.00;51.20;;;;;;5099438;28;20425;-43
2021/05/02 11:03:39;;;;;;;21.90;20.10;;;15.70;51.70;;;;;;5098927;28;20410;-44
2021/05/02 11:06:09;;;;;;;23.60;21.40;;;13.80;54.70;;;;;;5098431;28;20913;-44
2021/05/02 11:08:57;;;;;;;22.03;20.03;;;13.10;58.60;;;;;;5097411;28;20442;-42
2021/05/02 11:11:39;;;;;;;18.87;17.10;;;13.20;67.10;;;;;;5097992;28;20816;-41
2021/05/02 11:16:43;;;;;;;18.10;16.67;;;14.70;62.70;;;;;;5098368;28;20419;-40
2021/05/02 11:19:16;;;;;;;15.53;14.07;;;15.40;61.30;;;;;;5097877;28;20523;-43
2021/05/02 11:24:51;;;;;;;17.13;15.80;;;19.70;55.60;;;;;;5099139;28;20437;-43
2021/05/02 11:27:34;;;;;;;18.93;17.40;;;21.50;50.40;;;;;;5099065;28;20551;-43
2021/05/02 11:34:56;;;;;;;16.47;15.17;;;21.20;43.60;;;;;;5097793;28;20434;-43
2021/05/02 11:37:42;;;;;;;16.50;15.10;;;19.70;45.40;;;;;;5098158;28;20477;-43
2021/05/02 11:40:20;;;;;;;17.40;16.10;;;17.50;46.00;;;;;;5098333;28;20438;-43
2021/05/02 11:42:55;;;;;;;16.80;15.50;;;15.40;48.20;;;;;;5098349;28;20820;-43
2021/05/02 11:45:22;;;;;;;21.73;20.00;;;14.70;51.70;;;;;;5098348;28;20452;-42
2021/05/02 11:47:48;;;;;;;15.53;14.17;;;13.50;54.30;;;;;;5098084;28;20415;-42
2021/05/02 11:50:14;;;;;;;20.50;18.80;;;12.70;55.60;;;;;;5098425;28;20461;-43
2021/05/02 11:52:47;;;;;;;20.77;19.07;;;12.80;58.90;;;;;;5097643;28;20562;-42
2021/05/02 11:55:37;;;;;;;17.57;16.17;;;12.60;61.20;;;;;;5097381;28;20519;-41
2021/05/02 11:58:07;;;;;;;15.40;14.10;;;13.00;62.30;;;;;;5097220;28;20482;-43
2021/05/02 12:00:44;;;;;;;17.23;15.83;;;13.60;62.10;;;;;;5098296;28;20458;-43
2021/05/02 12:03:12;;;;;;;20.20;18.43;;;13.50;59.10;;;;;;5097571;28;20411;-42
2021/05/02 12:05:52;;;;;;;21.23;19.47;;;12.60;62.00;;;;;;5097697;28;20413;-43
2021/05/02 12:08:21;;;;;;;20.93;19.23;;;12.30;65.10;;;;;;5096188;28;20418;-42
2021/05/02 12:10:52;;;;;;;18.87;17.27;;;11.60;67.50;;;;;;5097860;28;20410;-41
2021/05/02 12:13:45;;;;;;;19.10;17.27;;;11.00;72.90;;;;;;5097905;28;20513;-42
2021/05/02 12:16:29;;;;;;;16.87;15.33;;;11.30;79.50;;;;;;5097630;28;20444;-43
2021/05/02 12:18:56;;;;;;;17.77;16.27;;;11.40;84.50;;;;;;5097747;28;20474;-43
2021/05/02 12:21:41;;;;;;;16.90;15.40;;;11.80;85.20;;;;;;5097977;28;20422;-42
2021/05/02 12:24:12;;;;;;;16.10;14.63;;;12.10;85.30;;;;;;5098105;28;20720;-43
2021/05/02 12:26:45;;;;;;;14.30;13.10;;;12.40;84.50;;;;;;5098155;28;20411;-42
2021/05/02 12:29:17;;;;;;;13.33;12.23;;;12.80;84.80;;;;;;5081873;28;20515;-42
2021/05/02 12:31:43;;;;;;;13.43;12.33;;;13.50;82.80;;;;;;5075740;28;20416;-43
2021/05/02 12:34:11;;;;;;;15.83;14.20;;;14.70;82.30;;;;;;5075336;28;20869;-42
2021/05/02 12:36:37;;;;;;;13.50;12.40;;;15.70;77.60;;;;;;5076298;28;20278;-43
2021/05/02 12:39:06;;;;;;;14.90;13.60;;;16.40;73.80;;;;;;5076473;28;20471;-42
2021/05/02 12:41:33;;;;;;;12.17;11.27;;;17.80;71.70;;;;;;5078985;28;20411;-43
2021/05/02 12:44:19;;;;;;;10.10;9.40;;;19.70;67.40;;;;;;5081072;28;20441;-41
2021/05/02 12:46:48;;;;;;;16.27;15.00;;;21.70;57.60;;;;;;5081372;28;20739;-42
2021/05/02 12:49:22;;;;;;;14.93;13.80;;;22.30;50.70;;;;;;5081518;28;20442;-43
2021/05/02 12:51:50;;;;;;;12.90;11.90;;;20.50;48.80;;;;;;5081774;28;20407;-44
2021/05/02 12:54:21;;;;;;;11.87;10.87;;;22.70;49.10;;;;;;5096905;28;20504;-44
2021/05/02 12:57:23;;;;;;;12.60;11.70;;;24.40;44.10;;;;;;5080754;28;20749;-43
2021/05/02 12:59:53;;;;;;;10.97;10.23;;;25.80;39.80;;;;;;5059909;28;20599;-42